sensor_id;sensor_type;location;lat;lon;timestamp;pressure;altitude;pressure_sealevel;temperature;humidity
4012;BME280;2020;48.682;9.024;2023-03-11T00:01:10;95337.81;;;0.27;70.44
4012;BME280;2020;48.682;9.024;2023-03-11T00:03:35;95342.22;;;0.25;69.81
4012;BME280;2020;48.682;9.024;2023-03-11T00:06:01;95345.94;;;0.33;70.54
4012;BME280;2020;48.682;9.024;2023-03-11T00:08:26;95342.69;;;0.31;70.61
4012;BME280;2020;48.682;9.024;2023-03-11T00:10:57;95355.03;;;0.25;70.81
4012;BME280;2020;48.682;9.024;2023-03-11T00:13:26;95346.41;;;0.26;72.37
4012;BME280;2020;48.682;9.024;2023-03-11T00:15:53;95355.50;;;0.19;71.60
4012;BME280;2020;48.682;9.024;2023-03-11T00:18:24;95359.81;;;0.19;71.31
4012;BME280;2020;48.682;9.024;2023-03-11T00:20:51;95353.41;;;0.13;72.68
4012;BME280;2020;48.682;9.024;2023-03-11T00:23:17;95356.22;;;0.10;72.39
4012;BME280;2020;48.682;9.024;2023-03-11T00:25:44;95356.81;;;0.13;73.54
4012;BME280;2020;48.682;9.024;2023-03-11T00:28:09;95355.03;;;0.14;73.91
4012;BME280;2020;48.682;9.024;2023-03-11T00:30:36;95363.66;;;0.13;73.70
4012;BME280;2020;48.682;9.024;2023-03-11T00:33:01;95364.25;;;0.05;73.04
4012;BME280;2020;48.682;9.024;2023-03-11T00:35:29;95350.41;;;0.08;72.92
4012;BME280;2020;48.682;9.024;2023-03-11T00:38:01;95354.59;;;0.09;73.59
4012;BME280;2020;48.682;9.024;2023-03-11T00:40:30;95351.69;;;0.13;73.89
4012;BME280;2020;48.682;9.024;2023-03-11T00:42:56;95360.84;;;0.16;73.80
4012;BME280;2020;48.682;9.024;2023-03-11T00:45:22;95364.94;;;0.19;74.53
4012;BME280;2020;48.682;9.024;2023-03-11T00:47:47;95351.44;;;0.17;74.30
4012;BME280;2020;48.682;9.024;2023-03-11T00:50:16;95362.47;;;0.17;74.06
4012;BME280;2020;48.682;9.024;2023-03-11T00:52:43;95373.88;;;0.24;74.33
4012;BME280;2020;48.682;9.024;2023-03-11T00:55:09;95367.59;;;0.17;74.12
4012;BME280;2020;48.682;9.024;2023-03-11T00:57:36;95357.13;;;0.20;74.18
4012;BME280;2020;48.682;9.024;2023-03-11T01:00:05;95365.97;;;0.16;75.00
4012;BME280;2020;48.682;9.024;2023-03-11T01:02:34;95386.44;;;0.16;74.90
4012;BME280;2020;48.682;9.024;2023-03-11T01:04:59;95390.78;;;0.16;74.42
4012;BME280;2020;48.682;9.024;2023-03-11T01:07:24;95381.56;;;0.13;74.56
4012;BME280;2020;48.682;9.024;2023-03-11T01:09:49;95379.25;;;0.10;74.36
4012;BME280;2020;48.682;9.024;2023-03-11T01:12:15;95386.00;;;0.11;75.52
4012;BME280;2020;48.682;9.024;2023-03-11T01:14:40;95390.63;;;0.06;75.42
4012;BME280;2020;48.682;9.024;2023-03-11T01:17:05;95389.47;;;0.10;75.55
4012;BME280;2020;48.682;9.024;2023-03-11T01:19:30;95387.50;;;0.13;76.37
4012;BME280;2020;48.682;9.024;2023-03-11T01:21:56;95382.63;;;0.10;75.33
4012;BME280;2020;48.682;9.024;2023-03-11T01:24:21;95387.16;;;0.07;74.86
4012;BME280;2020;48.682;9.024;2023-03-11T01:26:46;95387.38;;;0.04;75.52
4012;BME280;2020;48.682;9.024;2023-03-11T01:29:11;95398.44;;;0.04;75.19
4012;BME280;2020;48.682;9.024;2023-03-11T01:31:37;95396.59;;;0.06;74.89
4012;BME280;2020;48.682;9.024;2023-03-11T01:34:02;95391.72;;;0.03;76.28
4012;BME280;2020;48.682;9.024;2023-03-11T01:36:27;95409.47;;;0.05;76.24
4012;BME280;2020;48.682;9.024;2023-03-11T01:38:52;95409.25;;;0.08;75.66
4012;BME280;2020;48.682;9.024;2023-03-11T01:41:18;95421.34;;;0.06;76.26
4012;BME280;2020;48.682;9.024;2023-03-11T01:46:13;95396.69;;;0.05;74.70
4012;BME280;2020;48.682;9.024;2023-03-11T01:48:39;95397.25;;;-0.03;74.05
4012;BME280;2020;48.682;9.024;2023-03-11T01:51:06;95399.94;;;-0.05;73.56
4012;BME280;2020;48.682;9.024;2023-03-11T01:53:32;95400.97;;;-0.07;72.88
4012;BME280;2020;48.682;9.024;2023-03-11T01:55:58;95393.91;;;-0.04;73.32
4012;BME280;2020;48.682;9.024;2023-03-11T01:58:28;95397.16;;;-0.13;73.32
4012;BME280;2020;48.682;9.024;2023-03-11T02:00:55;95384.13;;;-0.10;73.43
4012;BME280;2020;48.682;9.024;2023-03-11T02:03:26;95367.84;;;-0.09;74.13
4012;BME280;2020;48.682;9.024;2023-03-11T02:05:53;95373.19;;;-0.12;73.82
4012;BME280;2020;48.682;9.024;2023-03-11T02:08:19;95387.16;;;-0.16;74.26
4012;BME280;2020;48.682;9.024;2023-03-11T02:10:45;95382.84;;;-0.16;74.94
4012;BME280;2020;48.682;9.024;2023-03-11T02:13:14;95388.78;;;-0.15;75.20
4012;BME280;2020;48.682;9.024;2023-03-11T02:15:40;95400.88;;;-0.17;74.62
4012;BME280;2020;48.682;9.024;2023-03-11T02:18:07;95395.06;;;-0.19;74.73
4012;BME280;2020;48.682;9.024;2023-03-11T02:20:51;95398.06;;;-0.25;73.21
4012;BME280;2020;48.682;9.024;2023-03-11T02:23:20;95405.28;;;-0.31;73.67
4012;BME280;2020;48.682;9.024;2023-03-11T02:26:06;95399.00;;;-0.38;73.43
4012;BME280;2020;48.682;9.024;2023-03-11T02:28:34;95406.22;;;-0.32;72.67
4012;BME280;2020;48.682;9.024;2023-03-11T02:31:01;95401.78;;;-0.41;72.49
4012;BME280;2020;48.682;9.024;2023-03-11T02:33:29;95406.16;;;-0.54;71.96
4012;BME280;2020;48.682;9.024;2023-03-11T02:35:55;95404.06;;;-0.61;70.58
4012;BME280;2020;48.682;9.024;2023-03-11T02:38:21;95409.19;;;-0.61;71.59
4012;BME280;2020;48.682;9.024;2023-03-11T02:40:51;95407.03;;;-0.67;70.99
4012;BME280;2020;48.682;9.024;2023-03-11T02:43:19;95404.28;;;-0.64;72.12
4012;BME280;2020;48.682;9.024;2023-03-11T02:45:48;95404.72;;;-0.70;72.22
4012;BME280;2020;48.682;9.024;2023-03-11T02:48:14;95408.19;;;-0.71;71.39
4012;BME280;2020;48.682;9.024;2023-03-11T02:50:40;95400.50;;;-0.82;71.98
4012;BME280;2020;48.682;9.024;2023-03-11T02:53:06;95391.91;;;-0.81;72.39
4012;BME280;2020;48.682;9.024;2023-03-11T02:55:32;95402.13;;;-0.81;71.89
4012;BME280;2020;48.682;9.024;2023-03-11T02:57:58;95411.09;;;-0.76;72.81
4012;BME280;2020;48.682;9.024;2023-03-11T03:00:23;95419.78;;;-0.78;71.98
4012;BME280;2020;48.682;9.024;2023-03-11T03:02:49;95435.59;;;-0.73;71.70
4012;BME280;2020;48.682;9.024;2023-03-11T03:05:17;95444.63;;;-0.80;71.23
4012;BME280;2020;48.682;9.024;2023-03-11T03:07:46;95438.56;;;-0.91;71.54
4012;BME280;2020;48.682;9.024;2023-03-11T03:10:13;95439.38;;;-0.90;70.08
4012;BME280;2020;48.682;9.024;2023-03-11T03:12:38;95459.00;;;-0.91;69.62
4012;BME280;2020;48.682;9.024;2023-03-11T03:15:04;95463.41;;;-0.93;71.04
4012;BME280;2020;48.682;9.024;2023-03-11T03:17:29;95447.34;;;-0.95;70.14
4012;BME280;2020;48.682;9.024;2023-03-11T03:19:54;95443.88;;;-0.94;70.86
4012;BME280;2020;48.682;9.024;2023-03-11T03:22:19;95439.81;;;-0.96;72.64
4012;BME280;2020;48.682;9.024;2023-03-11T03:24:45;95433.09;;;-0.97;71.79
4012;BME280;2020;48.682;9.024;2023-03-11T03:27:10;95432.47;;;-1.01;71.96
4012;BME280;2020;48.682;9.024;2023-03-11T03:29:35;95432.25;;;-0.98;72.66
4012;BME280;2020;48.682;9.024;2023-03-11T03:32:01;95430.41;;;-0.96;71.81
4012;BME280;2020;48.682;9.024;2023-03-11T03:34:26;95434.94;;;-0.99;71.60
4012;BME280;2020;48.682;9.024;2023-03-11T03:36:51;95451.28;;;-1.02;72.11
4012;BME280;2020;48.682;9.024;2023-03-11T03:39:16;95450.09;;;-1.09;70.98
4012;BME280;2020;48.682;9.024;2023-03-11T03:41:44;95453.56;;;-1.10;72.08
4012;BME280;2020;48.682;9.024;2023-03-11T03:44:09;95467.25;;;-1.11;72.09
4012;BME280;2020;48.682;9.024;2023-03-11T03:46:34;95463.78;;;-1.10;72.14
4012;BME280;2020;48.682;9.024;2023-03-11T03:48:59;95462.16;;;-1.11;73.50
4012;BME280;2020;48.682;9.024;2023-03-11T03:51:25;95459.50;;;-1.10;73.23
4012;BME280;2020;48.682;9.024;2023-03-11T03:53:50;95465.19;;;-1.06;72.73
4012;BME280;2020;48.682;9.024;2023-03-11T03:56:16;95478.19;;;-1.09;73.32
4012;BME280;2020;48.682;9.024;2023-03-11T03:58:42;95481.81;;;-1.25;72.34
4012;BME280;2020;48.682;9.024;2023-03-11T04:01:08;95478.13;;;-1.21;72.76
4012;BME280;2020;48.682;9.024;2023-03-11T04:03:34;95474.63;;;-1.20;74.29
4012;BME280;2020;48.682;9.024;2023-03-11T04:08:31;95481.81;;;-1.25;73.45
4012;BME280;2020;48.682;9.024;2023-03-11T04:10:56;95494.34;;;-1.22;73.07
4012;BME280;2020;48.682;9.024;2023-03-11T04:13:22;95489.38;;;-1.23;72.17
4012;BME280;2020;48.682;9.024;2023-03-11T04:15:48;95492.44;;;-1.31;73.47
4012;BME280;2020;48.682;9.024;2023-03-11T04:18:13;95494.28;;;-1.33;73.60
4012;BME280;2020;48.682;9.024;2023-03-11T04:20:38;95492.88;;;-1.37;73.65
4012;BME280;2020;48.682;9.024;2023-03-11T04:23:03;95498.47;;;-1.32;73.13
4012;BME280;2020;48.682;9.024;2023-03-11T04:25:29;95494.50;;;-1.36;72.90
4012;BME280;2020;48.682;9.024;2023-03-11T04:27:54;95494.00;;;-1.41;73.65
4012;BME280;2020;48.682;9.024;2023-03-11T04:30:19;95498.38;;;-1.43;73.68
4012;BME280;2020;48.682;9.024;2023-03-11T04:32:45;95494.50;;;-1.36;74.03
4012;BME280;2020;48.682;9.024;2023-03-11T04:35:10;95491.22;;;-1.38;74.56
4012;BME280;2020;48.682;9.024;2023-03-11T04:37:35;95485.28;;;-1.39;75.04
4012;BME280;2020;48.682;9.024;2023-03-11T04:40:01;95495.50;;;-1.39;75.44
4012;BME280;2020;48.682;9.024;2023-03-11T04:42:26;95488.19;;;-1.43;75.42
4012;BME280;2020;48.682;9.024;2023-03-11T04:44:52;95482.25;;;-1.44;74.82
4012;BME280;2020;48.682;9.024;2023-03-11T04:47:17;95483.06;;;-1.43;74.18
4012;BME280;2020;48.682;9.024;2023-03-11T04:49:43;95484.91;;;-1.45;74.81
4012;BME280;2020;48.682;9.024;2023-03-11T04:52:08;95498.19;;;-1.40;75.25
4012;BME280;2020;48.682;9.024;2023-03-11T04:54:33;95498.38;;;-1.43;74.63
4012;BME280;2020;48.682;9.024;2023-03-11T04:56:59;95502.66;;;-1.44;75.39
4012;BME280;2020;48.682;9.024;2023-03-11T04:59:24;95503.72;;;-1.47;75.77
4012;BME280;2020;48.682;9.024;2023-03-11T05:01:49;95512.28;;;-1.48;75.12
4012;BME280;2020;48.682;9.024;2023-03-11T05:04:14;95510.44;;;-1.45;75.56
4012;BME280;2020;48.682;9.024;2023-03-11T05:06:40;95501.75;;;-1.43;74.40
4012;BME280;2020;48.682;9.024;2023-03-11T05:09:05;95506.97;;;-1.44;74.80
4012;BME280;2020;48.682;9.024;2023-03-11T05:11:30;95502.28;;;-1.51;75.87
4012;BME280;2020;48.682;9.024;2023-03-11T05:13:55;95506.88;;;-1.56;76.28
4012;BME280;2020;48.682;9.024;2023-03-11T05:16:21;95508.00;;;-1.60;76.06
4012;BME280;2020;48.682;9.024;2023-03-11T05:18:46;95513.91;;;-1.59;76.48
4012;BME280;2020;48.682;9.024;2023-03-11T05:21:11;95516.59;;;-1.61;75.98
4012;BME280;2020;48.682;9.024;2023-03-11T05:23:37;95511.50;;;-1.61;76.90
4012;BME280;2020;48.682;9.024;2023-03-11T05:26:02;95513.91;;;-1.59;76.89
4012;BME280;2020;48.682;9.024;2023-03-11T05:28:27;95518.44;;;-1.63;76.49
4012;BME280;2020;48.682;9.024;2023-03-11T05:30:52;95531.91;;;-1.61;77.19
4012;BME280;2020;48.682;9.024;2023-03-11T05:33:18;95523.53;;;-1.63;75.31
4012;BME280;2020;48.682;9.024;2023-03-11T05:35:43;95530.06;;;-1.59;76.69
4012;BME280;2020;48.682;9.024;2023-03-11T05:38:08;95535.38;;;-1.62;76.48
4012;BME280;2020;48.682;9.024;2023-03-11T05:40:33;95526.81;;;-1.61;76.63
4012;BME280;2020;48.682;9.024;2023-03-11T05:42:59;95536.81;;;-1.58;76.03
4012;BME280;2020;48.682;9.024;2023-03-11T05:45:24;95532.31;;;-1.67;76.31
4012;BME280;2020;48.682;9.024;2023-03-11T05:47:51;95533.75;;;-1.63;75.68
4012;BME280;2020;48.682;9.024;2023-03-11T05:50:16;95527.22;;;-1.67;77.14
4012;BME280;2020;48.682;9.024;2023-03-11T05:52:42;95524.34;;;-1.75;76.65
4012;BME280;2020;48.682;9.024;2023-03-11T05:55:07;95537.00;;;-1.74;77.19
4012;BME280;2020;48.682;9.024;2023-03-11T05:57:35;95531.28;;;-1.78;75.55
4012;BME280;2020;48.682;9.024;2023-03-11T06:00:00;95542.94;;;-1.73;77.46
4012;BME280;2020;48.682;9.024;2023-03-11T06:02:26;95550.25;;;-1.69;77.64
4012;BME280;2020;48.682;9.024;2023-03-11T06:04:51;95547.22;;;-1.61;77.72
4012;BME280;2020;48.682;9.024;2023-03-11T06:07:16;95545.06;;;-1.54;77.54
4012;BME280;2020;48.682;9.024;2023-03-11T06:09:41;95535.97;;;-1.45;77.36
4012;BME280;2020;48.682;9.024;2023-03-11T06:12:07;95540.69;;;-1.02;76.62
4012;BME280;2020;48.682;9.024;2023-03-11T06:14:32;95544.16;;;-0.66;73.78
4012;BME280;2020;48.682;9.024;2023-03-11T06:16:58;95542.66;;;-0.33;71.10
4012;BME280;2020;48.682;9.024;2023-03-11T06:19:24;95534.19;;;0.25;69.74
4012;BME280;2020;48.682;9.024;2023-03-11T06:21:49;95546.69;;;0.53;68.98
4012;BME280;2020;48.682;9.024;2023-03-11T06:24:14;95547.94;;;0.36;68.35
4012;BME280;2020;48.682;9.024;2023-03-11T06:26:40;95543.44;;;-0.08;69.43
4012;BME280;2020;48.682;9.024;2023-03-11T06:29:07;95557.31;;;-0.35;71.41
4012;BME280;2020;48.682;9.024;2023-03-11T06:31:35;95552.19;;;-0.35;71.41
4012;BME280;2020;48.682;9.024;2023-03-11T06:34:01;95558.84;;;-0.21;70.57
4012;BME280;2020;48.682;9.024;2023-03-11T06:36:26;95561.81;;;-0.03;70.04
4012;BME280;2020;48.682;9.024;2023-03-11T06:38:52;95574.00;;;0.29;69.16
4012;BME280;2020;48.682;9.024;2023-03-11T06:41:18;95578.44;;;0.50;68.51
4012;BME280;2020;48.682;9.024;2023-03-11T06:43:43;95572.16;;;0.66;67.26
4012;BME280;2020;48.682;9.024;2023-03-11T06:46:15;95576.13;;;0.58;66.46
4012;BME280;2020;48.682;9.024;2023-03-11T06:48:41;95585.19;;;0.63;66.31
4012;BME280;2020;48.682;9.024;2023-03-11T06:51:06;95586.63;;;0.78;67.07
4012;BME280;2020;48.682;9.024;2023-03-11T06:53:32;95593.84;;;1.07;66.85
4012;BME280;2020;48.682;9.024;2023-03-11T06:58:26;95605.50;;;1.00;66.28
4012;BME280;2020;48.682;9.024;2023-03-11T07:00:52;95601.28;;;0.65;67.21
4012;BME280;2020;48.682;9.024;2023-03-11T07:03:17;95604.41;;;0.57;67.64
4012;BME280;2020;48.682;9.024;2023-03-11T07:05:42;95599.63;;;0.52;69.43
4012;BME280;2020;48.682;9.024;2023-03-11T07:08:07;95595.56;;;0.61;68.08
4012;BME280;2020;48.682;9.024;2023-03-11T07:10:33;95599.22;;;0.70;67.85
4012;BME280;2020;48.682;9.024;2023-03-11T07:12:59;95609.09;;;0.63;66.80
4012;BME280;2020;48.682;9.024;2023-03-11T07:15:24;95608.75;;;0.79;68.05
4012;BME280;2020;48.682;9.024;2023-03-11T07:17:50;95610.72;;;0.87;66.04
4012;BME280;2020;48.682;9.024;2023-03-11T07:20:15;95612.81;;;0.70;66.15
4012;BME280;2020;48.682;9.024;2023-03-11T07:22:40;95614.00;;;0.89;65.57
4012;BME280;2020;48.682;9.024;2023-03-11T07:25:06;95612.94;;;1.14;68.49
4012;BME280;2020;48.682;9.024;2023-03-11T07:27:31;95623.75;;;1.41;66.62
4012;BME280;2020;48.682;9.024;2023-03-11T07:29:57;95617.31;;;1.46;67.32
4012;BME280;2020;48.682;9.024;2023-03-11T07:32:22;95621.25;;;1.62;64.93
4012;BME280;2020;48.682;9.024;2023-03-11T07:34:47;95620.22;;;1.65;64.51
4012;BME280;2020;48.682;9.024;2023-03-11T07:37:13;95623.03;;;1.50;65.67
4012;BME280;2020;48.682;9.024;2023-03-11T07:39:38;95623.53;;;1.44;63.55
4012;BME280;2020;48.682;9.024;2023-03-11T07:42:04;95619.84;;;1.58;64.02
4012;BME280;2020;48.682;9.024;2023-03-11T07:44:29;95628.97;;;1.51;63.97
4012;BME280;2020;48.682;9.024;2023-03-11T07:46:54;95635.25;;;1.58;65.04
4012;BME280;2020;48.682;9.024;2023-03-11T07:49:20;95634.09;;;1.51;65.03
4012;BME280;2020;48.682;9.024;2023-03-11T07:51:45;95641.34;;;1.45;66.56
4012;BME280;2020;48.682;9.024;2023-03-11T07:54:11;95642.97;;;1.46;66.56
4012;BME280;2020;48.682;9.024;2023-03-11T07:56:37;95651.72;;;1.55;66.05
4012;BME280;2020;48.682;9.024;2023-03-11T07:59:03;95655.97;;;1.78;67.94
4012;BME280;2020;48.682;9.024;2023-03-11T08:01:31;95653.09;;;1.59;67.58
4012;BME280;2020;48.682;9.024;2023-03-11T08:04:01;95655.47;;;1.84;66.95
4012;BME280;2020;48.682;9.024;2023-03-11T08:06:30;95647.00;;;1.72;61.38
4012;BME280;2020;48.682;9.024;2023-03-11T08:08:59;95662.44;;;2.04;67.18
4012;BME280;2020;48.682;9.024;2023-03-11T08:11:25;95657.06;;;2.08;68.75
4012;BME280;2020;48.682;9.024;2023-03-11T08:13:51;95647.03;;;2.04;65.40
4012;BME280;2020;48.682;9.024;2023-03-11T08:16:20;95656.22;;;2.07;62.83
4012;BME280;2020;48.682;9.024;2023-03-11T08:18:47;95655.72;;;2.46;70.90
4012;BME280;2020;48.682;9.024;2023-03-11T08:21:16;95655.22;;;2.52;66.35
4012;BME280;2020;48.682;9.024;2023-03-11T08:23:41;95663.63;;;2.54;65.59
4012;BME280;2020;48.682;9.024;2023-03-11T08:26:10;95659.84;;;2.58;68.16
4012;BME280;2020;48.682;9.024;2023-03-11T08:28:36;95662.94;;;2.52;70.16
4012;BME280;2020;48.682;9.024;2023-03-11T08:31:02;95666.59;;;2.17;63.12
4012;BME280;2020;48.682;9.024;2023-03-11T08:33:28;95669.19;;;2.59;68.33
4012;BME280;2020;48.682;9.024;2023-03-11T08:35:53;95665.34;;;2.75;67.54
4012;BME280;2020;48.682;9.024;2023-03-11T08:38:18;95663.03;;;2.93;65.85
4012;BME280;2020;48.682;9.024;2023-03-11T08:40:44;95671.72;;;3.02;64.19
4012;BME280;2020;48.682;9.024;2023-03-11T08:43:13;95668.38;;;2.80;60.76
4012;BME280;2020;48.682;9.024;2023-03-11T08:45:39;95673.69;;;3.19;70.42
4012;BME280;2020;48.682;9.024;2023-03-11T08:48:05;95676.16;;;3.21;60.25
4012;BME280;2020;48.682;9.024;2023-03-11T08:50:30;95685.34;;;2.92;64.11
4012;BME280;2020;48.682;9.024;2023-03-11T08:52:58;95684.09;;;3.39;67.14
4012;BME280;2020;48.682;9.024;2023-03-11T08:55:27;95682.88;;;3.43;62.77
4012;BME280;2020;48.682;9.024;2023-03-11T08:57:53;95675.59;;;3.17;64.34
4012;BME280;2020;48.682;9.024;2023-03-11T09:00:18;95679.19;;;3.05;66.05
4012;BME280;2020;48.682;9.024;2023-03-11T09:02:44;95676.41;;;2.66;61.25
4012;BME280;2020;48.682;9.024;2023-03-11T09:05:10;95671.25;;;2.66;65.41
4012;BME280;2020;48.682;9.024;2023-03-11T09:07:35;95680.59;;;2.88;63.11
4012;BME280;2020;48.682;9.024;2023-03-11T09:10:01;95687.50;;;3.18;61.92
4012;BME280;2020;48.682;9.024;2023-03-11T09:12:29;95687.88;;;3.35;63.09
4012;BME280;2020;48.682;9.024;2023-03-11T09:14:54;95684.56;;;3.64;66.39
4012;BME280;2020;48.682;9.024;2023-03-11T09:17:20;95685.28;;;3.86;64.63
4012;BME280;2020;48.682;9.024;2023-03-11T09:19:46;95689.66;;;3.95;59.63
4012;BME280;2020;48.682;9.024;2023-03-11T09:22:11;95693.31;;;4.02;61.42
4012;BME280;2020;48.682;9.024;2023-03-11T09:24:37;95698.06;;;3.97;66.59
4012;BME280;2020;48.682;9.024;2023-03-11T09:27:05;95701.03;;;3.20;55.58
4012;BME280;2020;48.682;9.024;2023-03-11T09:29:30;95703.22;;;2.73;60.60
4012;BME280;2020;48.682;9.024;2023-03-11T09:31:56;95700.28;;;2.56;56.96
4012;BME280;2020;48.682;9.024;2023-03-11T09:34:22;95694.44;;;3.28;64.14
4012;BME280;2020;48.682;9.024;2023-03-11T09:36:47;95699.63;;;3.78;63.08
4012;BME280;2020;48.682;9.024;2023-03-11T09:39:12;95691.81;;;3.90;55.47
4012;BME280;2020;48.682;9.024;2023-03-11T09:42:00;95695.63;;;4.05;61.78
4012;BME280;2020;48.682;9.024;2023-03-11T09:44:42;95693.44;;;3.91;61.93
4012;BME280;2020;48.682;9.024;2023-03-11T09:47:24;95701.47;;;3.57;51.39
4012;BME280;2020;48.682;9.024;2023-03-11T09:50:22;95706.34;;;3.29;52.08
4012;BME280;2020;48.682;9.024;2023-03-11T09:53:00;95708.84;;;3.09;56.92
4012;BME280;2020;48.682;9.024;2023-03-11T10:00:41;95701.56;;;3.14;53.31
4012;BME280;2020;48.682;9.024;2023-03-11T10:03:16;95701.00;;;3.83;55.71
4012;BME280;2020;48.682;9.024;2023-03-11T10:05:44;95699.69;;;4.18;56.29
4012;BME280;2020;48.682;9.024;2023-03-11T10:08:32;95694.81;;;4.34;60.14
4012;BME280;2020;48.682;9.024;2023-03-11T10:11:11;95691.28;;;4.35;53.89
4012;BME280;2020;48.682;9.024;2023-03-11T10:16:51;95705.06;;;5.13;66.75
4012;BME280;2020;48.682;9.024;2023-03-11T10:22:04;95702.31;;;5.24;55.35
4012;BME280;2020;48.682;9.024;2023-03-11T10:24:45;95698.63;;;4.70;52.98
4012;BME280;2020;48.682;9.024;2023-03-11T10:27:18;95707.03;;;4.52;51.08
4012;BME280;2020;48.682;9.024;2023-03-11T10:30:01;95710.00;;;4.37;56.02
4012;BME280;2020;48.682;9.024;2023-03-11T10:32:34;95714.06;;;4.30;54.01
4012;BME280;2020;48.682;9.024;2023-03-11T10:35:15;95704.31;;;4.24;56.49
4012;BME280;2020;48.682;9.024;2023-03-11T10:37:50;95695.09;;;4.12;54.60
4012;BME280;2020;48.682;9.024;2023-03-11T10:40:32;95697.53;;;4.43;56.54
4012;BME280;2020;48.682;9.024;2023-03-11T10:43:04;95689.41;;;4.37;52.81
4012;BME280;2020;48.682;9.024;2023-03-11T10:45:38;95689.41;;;4.37;50.65
4012;BME280;2020;48.682;9.024;2023-03-11T10:48:13;95695.88;;;4.02;47.90
4012;BME280;2020;48.682;9.024;2023-03-11T10:50:53;95694.41;;;4.29;57.14
4012;BME280;2020;48.682;9.024;2023-03-11T10:53:21;95698.22;;;4.64;58.63
4012;BME280;2020;48.682;9.024;2023-03-11T10:55:52;95698.03;;;4.95;53.74
4012;BME280;2020;48.682;9.024;2023-03-11T10:58:21;95692.75;;;5.35;58.74
4012;BME280;2020;48.682;9.024;2023-03-11T11:01:14;95688.63;;;5.52;49.35
4012;BME280;2020;48.682;9.024;2023-03-11T11:03:42;95693.63;;;5.81;52.77
4012;BME280;2020;48.682;9.024;2023-03-11T11:09:05;95707.91;;;6.13;51.24
4012;BME280;2020;48.682;9.024;2023-03-11T11:11:31;95710.19;;;6.35;56.21
4012;BME280;2020;48.682;9.024;2023-03-11T11:13:58;95709.22;;;6.54;51.72
4012;BME280;2020;48.682;9.024;2023-03-11T11:16:24;95707.47;;;6.36;49.57
4012;BME280;2020;48.682;9.024;2023-03-11T11:19:11;95698.81;;;6.64;54.81
4012;BME280;2020;48.682;9.024;2023-03-11T11:21:39;95699.63;;;6.64;51.19
4012;BME280;2020;48.682;9.024;2023-03-11T11:24:19;95699.19;;;5.59;45.73
4012;BME280;2020;48.682;9.024;2023-03-11T11:29:35;95708.19;;;6.10;52.26
4012;BME280;2020;48.682;9.024;2023-03-11T11:35:07;95706.16;;;5.01;53.33
4012;BME280;2020;48.682;9.024;2023-03-11T11:37:36;95698.59;;;4.89;50.19
4012;BME280;2020;48.682;9.024;2023-03-11T11:40:18;95702.31;;;5.24;57.06
4012;BME280;2020;48.682;9.024;2023-03-11T11:42:50;95700.31;;;5.46;51.09
4012;BME280;2020;48.682;9.024;2023-03-11T11:45:26;95704.06;;;5.62;49.50
4012;BME280;2020;48.682;9.024;2023-03-11T11:47:55;95698.72;;;6.01;53.06
4012;BME280;2020;48.682;9.024;2023-03-11T11:50:32;95694.47;;;6.28;56.40
4012;BME280;2020;48.682;9.024;2023-03-11T11:53:14;95685.06;;;6.45;45.85
4012;BME280;2020;48.682;9.024;2023-03-11T11:55:47;95684.16;;;6.72;54.65
4012;BME280;2020;48.682;9.024;2023-03-11T11:58:13;95689.03;;;5.75;54.79
4012;BME280;2020;48.682;9.024;2023-03-11T12:00:54;95681.19;;;6.23;47.80
4012;BME280;2020;48.682;9.024;2023-03-11T12:06:38;95671.94;;;6.83;50.36
4012;BME280;2020;48.682;9.024;2023-03-11T12:11:50;95687.16;;;6.86;57.23
4012;BME280;2020;48.682;9.024;2023-03-11T12:14:24;95671.22;;;6.72;52.75
4012;BME280;2020;48.682;9.024;2023-03-11T12:16:59;95666.00;;;6.46;47.78
4012;BME280;2020;48.682;9.024;2023-03-11T12:19:33;95663.97;;;6.32;48.30
4012;BME280;2020;48.682;9.024;2023-03-11T12:27:45;95658.88;;;5.76;48.72
4012;BME280;2020;48.682;9.024;2023-03-11T12:35:57;95656.94;;;5.22;46.82
4012;BME280;2020;48.682;9.024;2023-03-11T12:38:33;95652.31;;;5.25;49.37
4012;BME280;2020;48.682;9.024;2023-03-11T12:46:13;95647.25;;;5.62;45.58
4012;BME280;2020;48.682;9.024;2023-03-11T12:48:44;95653.88;;;5.46;46.91
4012;BME280;2020;48.682;9.024;2023-03-11T12:54:31;95645.44;;;5.72;46.97
4012;BME280;2020;48.682;9.024;2023-03-11T13:04:50;95644.25;;;5.84;45.08
4012;BME280;2020;48.682;9.024;2023-03-11T13:10:00;95635.31;;;5.61;47.04
4012;BME280;2020;48.682;9.024;2023-03-11T13:12:41;95644.34;;;5.93;51.37
4012;BME280;2020;48.682;9.024;2023-03-11T13:18:02;95632.16;;;6.31;46.71
4012;BME280;2020;48.682;9.024;2023-03-11T13:20:41;95638.72;;;5.79;42.29
4012;BME280;2020;48.682;9.024;2023-03-11T13:25:40;95646.22;;;5.54;47.34
4012;BME280;2020;48.682;9.024;2023-03-11T13:31:33;95650.31;;;5.47;44.36
4012;BME280;2020;48.682;9.024;2023-03-11T13:34:26;95641.97;;;6.09;44.05
4012;BME280;2020;48.682;9.024;2023-03-11T13:37:19;95650.19;;;5.95;46.01
4012;BME280;2020;48.682;9.024;2023-03-11T13:42:55;95658.06;;;5.75;45.25
4012;BME280;2020;48.682;9.024;2023-03-11T13:45:28;95657.00;;;5.68;43.93
4012;BME280;2020;48.682;9.024;2023-03-11T13:48:00;95659.38;;;5.79;47.94
4012;BME280;2020;48.682;9.024;2023-03-11T13:50:30;95657.69;;;6.34;44.51
4012;BME280;2020;48.682;9.024;2023-03-11T13:53:02;95659.34;;;6.62;45.16
4012;BME280;2020;48.682;9.024;2023-03-11T13:55:34;95664.94;;;7.01;42.66
4012;BME280;2020;48.682;9.024;2023-03-11T13:58:13;95657.13;;;6.93;42.48
4012;BME280;2020;48.682;9.024;2023-03-11T14:00:46;95656.81;;;6.07;44.25
4012;BME280;2020;48.682;9.024;2023-03-11T14:03:12;95667.59;;;5.93;42.52
4012;BME280;2020;48.682;9.024;2023-03-11T14:05:44;95660.13;;;5.90;41.58
4012;BME280;2020;48.682;9.024;2023-03-11T14:08:33;95656.44;;;5.74;43.35
4012;BME280;2020;48.682;9.024;2023-03-11T14:11:14;95660.13;;;5.90;45.00
4012;BME280;2020;48.682;9.024;2023-03-11T14:13:44;95654.22;;;5.79;45.76
4012;BME280;2020;48.682;9.024;2023-03-11T14:16:19;95650.59;;;5.72;42.53
4012;BME280;2020;48.682;9.024;2023-03-11T14:18:47;95637.28;;;5.49;45.03
4012;BME280;2020;48.682;9.024;2023-03-11T14:21:21;95626.72;;;5.42;46.67
4012;BME280;2020;48.682;9.024;2023-03-11T14:23:50;95638.38;;;5.46;46.98
4012;BME280;2020;48.682;9.024;2023-03-11T14:26:21;95644.88;;;5.50;44.40
4012;BME280;2020;48.682;9.024;2023-03-11T14:28:50;95645.41;;;5.54;45.54
4012;BME280;2020;48.682;9.024;2023-03-11T14:31:36;95647.16;;;5.53;44.45
4012;BME280;2020;48.682;9.024;2023-03-11T14:36:48;95642.38;;;5.59;44.58
4012;BME280;2020;48.682;9.024;2023-03-11T14:39:25;95655.84;;;5.80;43.40
4012;BME280;2020;48.682;9.024;2023-03-11T14:41:58;95651.44;;;5.91;44.87
4012;BME280;2020;48.682;9.024;2023-03-11T14:44:26;95648.88;;;5.63;43.56
4012;BME280;2020;48.682;9.024;2023-03-11T14:47:02;95651.38;;;5.54;47.39
4012;BME280;2020;48.682;9.024;2023-03-11T14:49:27;95652.50;;;5.98;47.12
4012;BME280;2020;48.682;9.024;2023-03-11T14:51:59;95646.09;;;6.38;45.26
4012;BME280;2020;48.682;9.024;2023-03-11T14:54:28;95642.72;;;6.64;43.08